sensor_id;sensor_type;location;lat;lon;timestamp;temperature;humidity
73586;DHT22;61865;50.232;18.614;2023-03-31T00:00:36;8.20;99.90
73586;DHT22;61865;50.232;18.614;2023-03-31T00:02:58;8.20;99.90
73586;DHT22;61865;50.232;18.614;2023-03-31T00:05:21;8.10;99.90
73586;DHT22;61865;50.232;18.614;2023-03-31T00:07:44;8.10;99.90
73586;DHT22;61865;50.232;18.614;2023-03-31T00:10:08;8.00;99.90
73586;DHT22;61865;50.232;18.614;2023-03-31T00:12:31;8.00;99.90
73586;DHT22;61865;50.232;18.614;2023-03-31T00:14:53;7.90;99.90
73586;DHT22;61865;50.232;18.614;2023-03-31T00:17:16;7.80;99.90
73586;DHT22;61865;50.232;18.614;2023-03-31T00:19:38;7.80;99.90
73586;DHT22;61865;50.232;18.614;2023-03-31T00:22:01;7.70;99.90
73586;DHT22;61865;50.232;18.614;2023-03-31T00:24:24;7.60;99.90
73586;DHT22;61865;50.232;18.614;2023-03-31T00:26:46;7.60;99.90
73586;DHT22;61865;50.232;18.614;2023-03-31T00:29:11;7.50;99.90
73586;DHT22;61865;50.232;18.614;2023-03-31T00:31:33;7.50;99.90
73586;DHT22;61865;50.232;18.614;2023-03-31T00:33:57;7.40;99.90
73586;DHT22;61865;50.232;18.614;2023-03-31T00:36:19;7.50;99.90
73586;DHT22;61865;50.232;18.614;2023-03-31T00:38:47;7.50;99.90
73586;DHT22;61865;50.232;18.614;2023-03-31T00:41:09;7.50;99.90
73586;DHT22;61865;50.232;18.614;2023-03-31T00:43:33;7.50;99.90
73586;DHT22;61865;50.232;18.614;2023-03-31T00:46:02;7.50;99.90
73586;DHT22;61865;50.232;18.614;2023-03-31T00:48:26;7.60;99.90
73586;DHT22;61865;50.232;18.614;2023-03-31T00:50:53;7.70;99.90
73586;DHT22;61865;50.232;18.614;2023-03-31T00:53:17;7.60;99.90
73586;DHT22;61865;50.232;18.614;2023-03-31T00:55:44;7.80;99.90
73586;DHT22;61865;50.232;18.614;2023-03-31T00:58:07;7.80;99.90
73586;DHT22;61865;50.232;18.614;2023-03-31T01:00:34;7.80;99.90
73586;DHT22;61865;50.232;18.614;2023-03-31T01:02:57;7.80;99.90
73586;DHT22;61865;50.232;18.614;2023-03-31T01:05:24;7.90;99.90
73586;DHT22;61865;50.232;18.614;2023-03-31T01:07:50;7.90;99.90
73586;DHT22;61865;50.232;18.614;2023-03-31T01:10:13;7.90;99.90
73586;DHT22;61865;50.232;18.614;2023-03-31T01:12:37;7.90;99.90
73586;DHT22;61865;50.232;18.614;2023-03-31T01:15:02;8.00;99.90
73586;DHT22;61865;50.232;18.614;2023-03-31T01:17:25;7.90;99.90
73586;DHT22;61865;50.232;18.614;2023-03-31T01:19:59;7.90;99.90
73586;DHT22;61865;50.232;18.614;2023-03-31T01:22:57;8.00;99.90
73586;DHT22;61865;50.232;18.614;2023-03-31T01:28:36;7.90;99.90
73586;DHT22;61865;50.232;18.614;2023-03-31T01:31:25;7.80;99.90
73586;DHT22;61865;50.232;18.614;2023-03-31T01:34:27;7.70;99.90
73586;DHT22;61865;50.232;18.614;2023-03-31T01:40:02;7.60;99.90
73586;DHT22;61865;50.232;18.614;2023-03-31T01:42:32;7.50;99.90
73586;DHT22;61865;50.232;18.614;2023-03-31T01:45:01;7.40;99.90
73586;DHT22;61865;50.232;18.614;2023-03-31T01:47:26;7.30;99.90
73586;DHT22;61865;50.232;18.614;2023-03-31T01:49:55;7.30;99.90
73586;DHT22;61865;50.232;18.614;2023-03-31T01:52:23;7.20;99.90
73586;DHT22;61865;50.232;18.614;2023-03-31T01:54:48;7.10;99.90
73586;DHT22;61865;50.232;18.614;2023-03-31T01:57:16;7.10;99.90
73586;DHT22;61865;50.232;18.614;2023-03-31T01:59:44;7.00;99.90
73586;DHT22;61865;50.232;18.614;2023-03-31T02:02:11;7.10;99.90
73586;DHT22;61865;50.232;18.614;2023-03-31T02:04:38;7.10;99.90
73586;DHT22;61865;50.232;18.614;2023-03-31T02:07:06;7.20;99.90
73586;DHT22;61865;50.232;18.614;2023-03-31T02:09:34;7.30;99.90
73586;DHT22;61865;50.232;18.614;2023-03-31T02:11:58;7.40;99.90
73586;DHT22;61865;50.232;18.614;2023-03-31T02:14:24;7.40;99.90
73586;DHT22;61865;50.232;18.614;2023-03-31T02:16:48;7.50;99.90
73586;DHT22;61865;50.232;18.614;2023-03-31T02:19:11;7.50;99.90
73586;DHT22;61865;50.232;18.614;2023-03-31T02:21:36;7.50;99.90
73586;DHT22;61865;50.232;18.614;2023-03-31T02:24:01;7.60;99.90
73586;DHT22;61865;50.232;18.614;2023-03-31T02:26:27;7.60;99.90
73586;DHT22;61865;50.232;18.614;2023-03-31T02:28:50;7.60;99.90
73586;DHT22;61865;50.232;18.614;2023-03-31T02:31:22;7.60;99.90
73586;DHT22;61865;50.232;18.614;2023-03-31T02:33:46;7.70;99.90
73586;DHT22;61865;50.232;18.614;2023-03-31T02:36:09;7.60;99.90
73586;DHT22;61865;50.232;18.614;2023-03-31T02:38:34;7.60;99.90
73586;DHT22;61865;50.232;18.614;2023-03-31T02:40:57;7.60;99.90
73586;DHT22;61865;50.232;18.614;2023-03-31T02:43:20;7.50;99.90
73586;DHT22;61865;50.232;18.614;2023-03-31T02:45:44;7.50;99.90
73586;DHT22;61865;50.232;18.614;2023-03-31T02:48:09;7.40;99.90
73586;DHT22;61865;50.232;18.614;2023-03-31T02:50:42;7.40;99.90
73586;DHT22;61865;50.232;18.614;2023-03-31T02:53:08;7.30;99.90
73586;DHT22;61865;50.232;18.614;2023-03-31T02:55:45;7.30;99.90
73586;DHT22;61865;50.232;18.614;2023-03-31T02:58:40;7.30;99.90
73586;DHT22;61865;50.232;18.614;2023-03-31T03:01:22;7.30;99.90
73586;DHT22;61865;50.232;18.614;2023-03-31T03:03:57;7.40;99.90
73586;DHT22;61865;50.232;18.614;2023-03-31T03:06:35;7.40;99.90
73586;DHT22;61865;50.232;18.614;2023-03-31T03:09:23;7.50;99.90
73586;DHT22;61865;50.232;18.614;2023-03-31T03:11:53;7.50;99.90
73586;DHT22;61865;50.232;18.614;2023-03-31T03:14:26;7.50;99.90
73586;DHT22;61865;50.232;18.614;2023-03-31T03:16:53;7.50;99.90
73586;DHT22;61865;50.232;18.614;2023-03-31T03:19:21;7.50;99.90
73586;DHT22;61865;50.232;18.614;2023-03-31T03:21:43;7.50;99.90
73586;DHT22;61865;50.232;18.614;2023-03-31T03:24:07;7.50;99.90
73586;DHT22;61865;50.232;18.614;2023-03-31T03:26:29;7.50;99.90
73586;DHT22;61865;50.232;18.614;2023-03-31T03:28:55;7.50;99.90
73586;DHT22;61865;50.232;18.614;2023-03-31T03:31:18;7.50;99.90
73586;DHT22;61865;50.232;18.614;2023-03-31T03:33:40;7.40;99.90
73586;DHT22;61865;50.232;18.614;2023-03-31T03:36:04;7.40;99.90
73586;DHT22;61865;50.232;18.614;2023-03-31T03:38:27;7.40;99.90
73586;DHT22;61865;50.232;18.614;2023-03-31T03:40:52;7.40;99.90
73586;DHT22;61865;50.232;18.614;2023-03-31T03:43:14;7.40;99.90
73586;DHT22;61865;50.232;18.614;2023-03-31T03:45:36;7.40;99.90
73586;DHT22;61865;50.232;18.614;2023-03-31T03:47:57;7.40;99.90
73586;DHT22;61865;50.232;18.614;2023-03-31T03:50:19;7.30;99.90
73586;DHT22;61865;50.232;18.614;2023-03-31T03:52:43;7.30;99.90
73586;DHT22;61865;50.232;18.614;2023-03-31T03:55:08;7.10;99.90
73586;DHT22;61865;50.232;18.614;2023-03-31T03:57:31;7.00;99.90
73586;DHT22;61865;50.232;18.614;2023-03-31T03:59:53;6.90;99.90
73586;DHT22;61865;50.232;18.614;2023-03-31T04:02:15;6.80;99.90
73586;DHT22;61865;50.232;18.614;2023-03-31T04:04:37;6.70;99.90
73586;DHT22;61865;50.232;18.614;2023-03-31T04:06:59;6.60;99.90
73586;DHT22;61865;50.232;18.614;2023-03-31T04:09:22;6.60;99.90
73586;DHT22;61865;50.232;18.614;2023-03-31T04:11:44;6.50;99.90
73586;DHT22;61865;50.232;18.614;2023-03-31T04:14:06;6.40;99.90
73586;DHT22;61865;50.232;18.614;2023-03-31T04:16:28;6.30;99.90
73586;DHT22;61865;50.232;18.614;2023-03-31T04:18:50;6.20;99.90
73586;DHT22;61865;50.232;18.614;2023-03-31T04:21:16;6.10;99.90
73586;DHT22;61865;50.232;18.614;2023-03-31T04:23:42;6.10;99.90
73586;DHT22;61865;50.232;18.614;2023-03-31T04:26:08;6.00;99.90
73586;DHT22;61865;50.232;18.614;2023-03-31T04:28:30;6.00;99.90
73586;DHT22;61865;50.232;18.614;2023-03-31T04:30:57;5.90;99.90
73586;DHT22;61865;50.232;18.614;2023-03-31T04:33:19;5.80;99.90
73586;DHT22;61865;50.232;18.614;2023-03-31T04:35:42;5.80;99.90
73586;DHT22;61865;50.232;18.614;2023-03-31T04:38:12;5.70;99.90
73586;DHT22;61865;50.232;18.614;2023-03-31T04:40:33;5.70;99.90
73586;DHT22;61865;50.232;18.614;2023-03-31T04:42:57;5.70;99.90
73586;DHT22;61865;50.232;18.614;2023-03-31T04:45:19;5.70;99.90
73586;DHT22;61865;50.232;18.614;2023-03-31T04:47:41;5.70;99.90
73586;DHT22;61865;50.232;18.614;2023-03-31T04:50:03;5.70;99.90
73586;DHT22;61865;50.232;18.614;2023-03-31T04:52:25;5.60;99.90
73586;DHT22;61865;50.232;18.614;2023-03-31T04:54:47;5.70;99.90
73586;DHT22;61865;50.232;18.614;2023-03-31T04:57:09;5.70;99.90
73586;DHT22;61865;50.232;18.614;2023-03-31T04:59:32;5.70;99.90
73586;DHT22;61865;50.232;18.614;2023-03-31T05:01:54;5.70;99.90
73586;DHT22;61865;50.232;18.614;2023-03-31T05:04:16;5.80;99.90
73586;DHT22;61865;50.232;18.614;2023-03-31T05:06:38;5.80;99.90
73586;DHT22;61865;50.232;18.614;2023-03-31T05:09:00;5.80;99.90
73586;DHT22;61865;50.232;18.614;2023-03-31T05:11:22;5.90;99.90
73586;DHT22;61865;50.232;18.614;2023-03-31T05:13:44;5.90;99.90
73586;DHT22;61865;50.232;18.614;2023-03-31T05:16:10;6.00;99.90
73586;DHT22;61865;50.232;18.614;2023-03-31T05:18:34;6.00;99.90
73586;DHT22;61865;50.232;18.614;2023-03-31T05:20:56;6.20;99.90
73586;DHT22;61865;50.232;18.614;2023-03-31T05:23:18;6.20;99.90
73586;DHT22;61865;50.232;18.614;2023-03-31T05:25:40;6.30;99.90
73586;DHT22;61865;50.232;18.614;2023-03-31T05:28:03;6.30;99.90
73586;DHT22;61865;50.232;18.614;2023-03-31T05:30:26;6.50;99.90
73586;DHT22;61865;50.232;18.614;2023-03-31T05:32:49;6.50;99.90
73586;DHT22;61865;50.232;18.614;2023-03-31T05:35:11;6.60;99.90
73586;DHT22;61865;50.232;18.614;2023-03-31T05:37:33;6.70;99.90
73586;DHT22;61865;50.232;18.614;2023-03-31T05:39:55;6.80;99.90
73586;DHT22;61865;50.232;18.614;2023-03-31T05:42:17;6.90;99.90
73586;DHT22;61865;50.232;18.614;2023-03-31T05:44:39;7.00;99.90
73586;DHT22;61865;50.232;18.614;2023-03-31T05:47:01;7.10;99.90
73586;DHT22;61865;50.232;18.614;2023-03-31T05:49:24;7.20;99.90
73586;DHT22;61865;50.232;18.614;2023-03-31T05:51:46;7.30;99.90
73586;DHT22;61865;50.232;18.614;2023-03-31T05:54:08;7.40;99.90
73586;DHT22;61865;50.232;18.614;2023-03-31T05:56:30;7.50;99.90
73586;DHT22;61865;50.232;18.614;2023-03-31T05:58:52;7.60;99.90
73586;DHT22;61865;50.232;18.614;2023-03-31T06:01:16;7.80;99.90
73586;DHT22;61865;50.232;18.614;2023-03-31T06:03:40;8.10;99.90
73586;DHT22;61865;50.232;18.614;2023-03-31T06:06:04;8.40;99.90
73586;DHT22;61865;50.232;18.614;2023-03-31T06:08:27;8.80;99.90
73586;DHT22;61865;50.232;18.614;2023-03-31T06:10:49;9.00;99.90
73586;DHT22;61865;50.232;18.614;2023-03-31T06:13:11;9.10;99.90
73586;DHT22;61865;50.232;18.614;2023-03-31T06:15:33;9.10;99.90
73586;DHT22;61865;50.232;18.614;2023-03-31T06:17:55;9.10;99.90
73586;DHT22;61865;50.232;18.614;2023-03-31T06:20:17;9.10;99.90
73586;DHT22;61865;50.232;18.614;2023-03-31T06:22:40;9.10;99.90
73586;DHT22;61865;50.232;18.614;2023-03-31T06:25:03;9.00;99.90
73586;DHT22;61865;50.232;18.614;2023-03-31T06:27:25;9.10;99.90
73586;DHT22;61865;50.232;18.614;2023-03-31T06:29:47;9.20;99.90
73586;DHT22;61865;50.232;18.614;2023-03-31T06:32:10;9.20;99.90
73586;DHT22;61865;50.232;18.614;2023-03-31T06:34:35;9.30;99.90
73586;DHT22;61865;50.232;18.614;2023-03-31T06:36:58;9.30;99.90
73586;DHT22;61865;50.232;18.614;2023-03-31T06:39:25;9.30;99.90
73586;DHT22;61865;50.232;18.614;2023-03-31T06:41:46;9.40;99.90
73586;DHT22;61865;50.232;18.614;2023-03-31T06:44:08;9.50;99.90
73586;DHT22;61865;50.232;18.614;2023-03-31T06:46:30;9.50;99.90
73586;DHT22;61865;50.232;18.614;2023-03-31T06:48:52;9.60;99.90
73586;DHT22;61865;50.232;18.614;2023-03-31T06:51:15;9.70;99.90
73586;DHT22;61865;50.232;18.614;2023-03-31T06:53:37;9.80;99.90
73586;DHT22;61865;50.232;18.614;2023-03-31T06:56:00;9.90;99.90
73586;DHT22;61865;50.232;18.614;2023-03-31T06:58:22;10.00;99.90
73586;DHT22;61865;50.232;18.614;2023-03-31T07:00:44;10.00;99.90
73586;DHT22;61865;50.232;18.614;2023-03-31T07:03:06;10.10;99.90
73586;DHT22;61865;50.232;18.614;2023-03-31T07:05:29;10.10;99.90
73586;DHT22;61865;50.232;18.614;2023-03-31T07:07:52;10.20;99.90
73586;DHT22;61865;50.232;18.614;2023-03-31T07:10:14;10.20;99.90
73586;DHT22;61865;50.232;18.614;2023-03-31T07:12:37;10.30;99.90
73586;DHT22;61865;50.232;18.614;2023-03-31T07:14:59;10.40;99.90
73586;DHT22;61865;50.232;18.614;2023-03-31T07:17:21;10.40;99.90
73586;DHT22;61865;50.232;18.614;2023-03-31T07:19:44;10.50;99.90
73586;DHT22;61865;50.232;18.614;2023-03-31T07:22:08;10.70;99.90
73586;DHT22;61865;50.232;18.614;2023-03-31T07:24:30;11.00;99.90
73586;DHT22;61865;50.232;18.614;2023-03-31T07:26:51;11.30;99.90
73586;DHT22;61865;50.232;18.614;2023-03-31T07:29:15;11.60;99.90
73586;DHT22;61865;50.232;18.614;2023-03-31T07:31:37;11.90;99.90
73586;DHT22;61865;50.232;18.614;2023-03-31T07:34:00;12.00;99.90
73586;DHT22;61865;50.232;18.614;2023-03-31T07:36:22;12.10;99.90
73586;DHT22;61865;50.232;18.614;2023-03-31T07:38:45;12.20;99.90
73586;DHT22;61865;50.232;18.614;2023-03-31T07:41:09;12.20;99.90
73586;DHT22;61865;50.232;18.614;2023-03-31T07:43:32;12.30;99.90
73586;DHT22;61865;50.232;18.614;2023-03-31T07:45:55;12.20;99.90
73586;DHT22;61865;50.232;18.614;2023-03-31T07:48:17;12.20;99.90
73586;DHT22;61865;50.232;18.614;2023-03-31T07:50:39;12.40;99.90
73586;DHT22;61865;50.232;18.614;2023-03-31T07:53:01;12.60;99.90
73586;DHT22;61865;50.232;18.614;2023-03-31T07:55:23;12.80;99.90
73586;DHT22;61865;50.232;18.614;2023-03-31T07:57:46;12.70;99.90
73586;DHT22;61865;50.232;18.614;2023-03-31T08:00:09;12.90;99.90
73586;DHT22;61865;50.232;18.614;2023-03-31T08:02:33;13.10;99.90
73586;DHT22;61865;50.232;18.614;2023-03-31T08:04:55;13.10;99.90
73586;DHT22;61865;50.232;18.614;2023-03-31T08:07:17;13.10;99.90
73586;DHT22;61865;50.232;18.614;2023-03-31T08:09:40;13.30;99.90
73586;DHT22;61865;50.232;18.614;2023-03-31T08:12:04;13.40;99.90
73586;DHT22;61865;50.232;18.614;2023-03-31T08:14:25;13.30;99.90
73586;DHT22;61865;50.232;18.614;2023-03-31T08:16:47;13.30;99.90
73586;DHT22;61865;50.232;18.614;2023-03-31T08:19:14;13.40;99.90
73586;DHT22;61865;50.232;18.614;2023-03-31T08:21:36;13.20;99.90
73586;DHT22;61865;50.232;18.614;2023-03-31T08:23:58;13.20;99.90
73586;DHT22;61865;50.232;18.614;2023-03-31T08:26:20;13.10;99.90
73586;DHT22;61865;50.232;18.614;2023-03-31T08:28:44;13.00;99.90
73586;DHT22;61865;50.232;18.614;2023-03-31T08:31:08;12.90;99.90
73586;DHT22;61865;50.232;18.614;2023-03-31T08:33:31;12.80;99.90
73586;DHT22;61865;50.232;18.614;2023-03-31T08:35:55;12.70;99.90
73586;DHT22;61865;50.232;18.614;2023-03-31T08:38:16;12.80;99.90
73586;DHT22;61865;50.232;18.614;2023-03-31T08:40:40;12.90;99.90
73586;DHT22;61865;50.232;18.614;2023-03-31T08:43:06;12.80;99.90
73586;DHT22;61865;50.232;18.614;2023-03-31T08:45:33;12.90;99.90
73586;DHT22;61865;50.232;18.614;2023-03-31T08:48:01;12.90;99.90
73586;DHT22;61865;50.232;18.614;2023-03-31T08:50:26;12.80;99.90
73586;DHT22;61865;50.232;18.614;2023-03-31T08:52:56;12.90;99.90
73586;DHT22;61865;50.232;18.614;2023-03-31T08:55:24;12.90;99.90
73586;DHT22;61865;50.232;18.614;2023-03-31T08:57:54;13.00;99.90
73586;DHT22;61865;50.232;18.614;2023-03-31T09:00:18;13.00;99.90
73586;DHT22;61865;50.232;18.614;2023-03-31T09:02:44;13.10;99.90
73586;DHT22;61865;50.232;18.614;2023-03-31T09:05:42;13.30;99.90
73586;DHT22;61865;50.232;18.614;2023-03-31T09:08:17;13.40;99.90
73586;DHT22;61865;50.232;18.614;2023-03-31T09:10:53;13.50;99.90
73586;DHT22;61865;50.232;18.614;2023-03-31T09:13:34;13.70;99.90
73586;DHT22;61865;50.232;18.614;2023-03-31T09:16:03;13.80;99.90
73586;DHT22;61865;50.232;18.614;2023-03-31T09:18:29;14.00;99.90
73586;DHT22;61865;50.232;18.614;2023-03-31T09:20:53;14.20;99.90
73586;DHT22;61865;50.232;18.614;2023-03-31T09:23:24;14.20;99.90
73586;DHT22;61865;50.232;18.614;2023-03-31T09:25:48;14.10;99.90
73586;DHT22;61865;50.232;18.614;2023-03-31T09:28:17;13.90;99.90
73586;DHT22;61865;50.232;18.614;2023-03-31T09:30:40;13.80;99.90
73586;DHT22;61865;50.232;18.614;2023-03-31T09:33:10;13.70;99.90
73586;DHT22;61865;50.232;18.614;2023-03-31T09:35:32;14.00;99.90
73586;DHT22;61865;50.232;18.614;2023-03-31T09:37:54;14.20;99.90
73586;DHT22;61865;50.232;18.614;2023-03-31T09:40:19;14.50;99.90
73586;DHT22;61865;50.232;18.614;2023-03-31T09:42:42;14.70;99.90
73586;DHT22;61865;50.232;18.614;2023-03-31T09:45:05;14.90;99.90
73586;DHT22;61865;50.232;18.614;2023-03-31T09:47:31;14.90;99.90
73586;DHT22;61865;50.232;18.614;2023-03-31T09:49:54;14.90;99.90
73586;DHT22;61865;50.232;18.614;2023-03-31T09:52:25;14.90;99.90
73586;DHT22;61865;50.232;18.614;2023-03-31T09:54:49;14.90;99.90
73586;DHT22;61865;50.232;18.614;2023-03-31T09:57:23;15.00;99.90
73586;DHT22;61865;50.232;18.614;2023-03-31T09:59:49;15.30;99.90
73586;DHT22;61865;50.232;18.614;2023-03-31T10:02:33;15.50;99.90
73586;DHT22;61865;50.232;18.614;2023-03-31T10:04:56;15.60;99.90
73586;DHT22;61865;50.232;18.614;2023-03-31T10:07:20;15.90;99.90
73586;DHT22;61865;50.232;18.614;2023-03-31T10:09:46;15.80;99.90
73586;DHT22;61865;50.232;18.614;2023-03-31T10:12:18;15.50;99.90
73586;DHT22;61865;50.232;18.614;2023-03-31T10:14:46;15.50;99.90
73586;DHT22;61865;50.232;18.614;2023-03-31T10:17:13;15.70;99.90
73586;DHT22;61865;50.232;18.614;2023-03-31T10:19:36;15.80;99.90
73586;DHT22;61865;50.232;18.614;2023-03-31T10:22:00;15.70;99.90
73586;DHT22;61865;50.232;18.614;2023-03-31T10:24:22;15.70;99.90
73586;DHT22;61865;50.232;18.614;2023-03-31T10:26:47;15.70;99.90
73586;DHT22;61865;50.232;18.614;2023-03-31T10:29:11;15.90;99.90
73586;DHT22;61865;50.232;18.614;2023-03-31T10:31:35;15.90;99.90
73586;DHT22;61865;50.232;18.614;2023-03-31T10:33:57;16.10;96.90
73586;DHT22;61865;50.232;18.614;2023-03-31T10:36:22;16.20;96.00
73586;DHT22;61865;50.232;18.614;2023-03-31T10:38:48;16.20;98.10
73586;DHT22;61865;50.232;18.614;2023-03-31T10:41:11;16.30;94.50
73586;DHT22;61865;50.232;18.614;2023-03-31T10:43:40;16.30;92.50
73586;DHT22;61865;50.232;18.614;2023-03-31T10:46:05;16.30;86.80
73586;DHT22;61865;50.232;18.614;2023-03-31T10:48:29;16.50;89.40
73586;DHT22;61865;50.232;18.614;2023-03-31T10:50:51;16.50;89.60
73586;DHT22;61865;50.232;18.614;2023-03-31T10:53:17;16.60;92.30
73586;DHT22;61865;50.232;18.614;2023-03-31T10:55:43;16.80;87.80
73586;DHT22;61865;50.232;18.614;2023-03-31T10:58:20;16.80;84.10
73586;DHT22;61865;50.232;18.614;2023-03-31T11:00:57;16.70;83.90
73586;DHT22;61865;50.232;18.614;2023-03-31T11:03:39;16.60;83.50
73586;DHT22;61865;50.232;18.614;2023-03-31T11:06:06;16.60;87.50
73586;DHT22;61865;50.232;18.614;2023-03-31T11:08:40;16.60;86.00
73586;DHT22;61865;50.232;18.614;2023-03-31T11:11:23;16.40;86.70
73586;DHT22;61865;50.232;18.614;2023-03-31T11:13:51;16.40;86.20
73586;DHT22;61865;50.232;18.614;2023-03-31T11:16:21;16.40;92.30
73586;DHT22;61865;50.232;18.614;2023-03-31T11:19:00;16.50;89.90
73586;DHT22;61865;50.232;18.614;2023-03-31T11:21:29;16.70;95.20
73586;DHT22;61865;50.232;18.614;2023-03-31T11:24:00;16.70;89.90
73586;DHT22;61865;50.232;18.614;2023-03-31T11:26:35;16.40;90.00
73586;DHT22;61865;50.232;18.614;2023-03-31T11:29:10;16.60;90.80
73586;DHT22;61865;50.232;18.614;2023-03-31T11:31:43;16.50;90.80
73586;DHT22;61865;50.232;18.614;2023-03-31T11:34:24;16.50;89.10
73586;DHT22;61865;50.232;18.614;2023-03-31T11:40:11;16.90;85.50
73586;DHT22;61865;50.232;18.614;2023-03-31T11:42:38;17.10;80.20
73586;DHT22;61865;50.232;18.614;2023-03-31T11:45:05;17.10;99.90
73586;DHT22;61865;50.232;18.614;2023-03-31T11:47:35;16.90;99.90
73586;DHT22;61865;50.232;18.614;2023-03-31T11:50:02;16.80;99.90
73586;DHT22;61865;50.232;18.614;2023-03-31T11:52:28;16.80;99.90
73586;DHT22;61865;50.232;18.614;2023-03-31T11:54:55;16.60;93.40
73586;DHT22;61865;50.232;18.614;2023-03-31T11:57:21;16.60;88.10
73586;DHT22;61865;50.232;18.614;2023-03-31T11:59:48;16.50;93.10
73586;DHT22;61865;50.232;18.614;2023-03-31T12:02:16;16.40;83.00
73586;DHT22;61865;50.232;18.614;2023-03-31T12:04:40;16.40;81.20
73586;DHT22;61865;50.232;18.614;2023-03-31T12:07:16;16.30;73.60
73586;DHT22;61865;50.232;18.614;2023-03-31T12:09:49;16.30;75.10
73586;DHT22;61865;50.232;18.614;2023-03-31T12:12:14;16.50;68.60
73586;DHT22;61865;50.232;18.614;2023-03-31T12:14:41;16.70;65.30
73586;DHT22;61865;50.232;18.614;2023-03-31T12:17:09;16.90;63.90
73586;DHT22;61865;50.232;18.614;2023-03-31T12:19:35;17.00;62.80
73586;DHT22;61865;50.232;18.614;2023-03-31T12:22:11;17.20;62.60
73586;DHT22;61865;50.232;18.614;2023-03-31T12:24:35;17.50;60.40
73586;DHT22;61865;50.232;18.614;2023-03-31T12:27:04;17.60;62.40
73586;DHT22;61865;50.232;18.614;2023-03-31T12:29:30;17.80;59.80
73586;DHT22;61865;50.232;18.614;2023-03-31T12:31:55;17.80;58.10
73586;DHT22;61865;50.232;18.614;2023-03-31T12:34:18;17.50;57.40
73586;DHT22;61865;50.232;18.614;2023-03-31T12:36:50;17.20;58.90
73586;DHT22;61865;50.232;18.614;2023-03-31T12:39:25;17.10;59.10
73586;DHT22;61865;50.232;18.614;2023-03-31T12:42:13;16.70;59.10
73586;DHT22;61865;50.232;18.614;2023-03-31T12:44:51;16.30;61.40
73586;DHT22;61865;50.232;18.614;2023-03-31T12:47:31;16.40;61.90
73586;DHT22;61865;50.232;18.614;2023-03-31T12:50:12;16.50;62.80
73586;DHT22;61865;50.232;18.614;2023-03-31T12:52:41;16.50;62.60
73586;DHT22;61865;50.232;18.614;2023-03-31T13:01:14;16.60;67.90
73586;DHT22;61865;50.232;18.614;2023-03-31T13:03:52;16.60;64.30
73586;DHT22;61865;50.232;18.614;2023-03-31T13:09:47;16.40;92.00
73586;DHT22;61865;50.232;18.614;2023-03-31T13:12:18;16.40;99.90
73586;DHT22;61865;50.232;18.614;2023-03-31T13:14:43;16.40;99.90
73586;DHT22;61865;50.232;18.614;2023-03-31T13:17:19;16.20;99.90
73586;DHT22;61865;50.232;18.614;2023-03-31T13:19:46;16.00;99.90
73586;DHT22;61865;50.232;18.614;2023-03-31T13:22:28;15.70;99.90
73586;DHT22;61865;50.232;18.614;2023-03-31T13:24:50;15.60;99.90
73586;DHT22;61865;50.232;18.614;2023-03-31T13:27:29;15.50;99.90
73586;DHT22;61865;50.232;18.614;2023-03-31T13:29:51;15.30;99.90
73586;DHT22;61865;50.232;18.614;2023-03-31T13:32:21;15.20;99.90
73586;DHT22;61865;50.232;18.614;2023-03-31T13:34:45;15.10;99.90
73586;DHT22;61865;50.232;18.614;2023-03-31T13:37:18;15.00;99.90
73586;DHT22;61865;50.232;18.614;2023-03-31T13:40:07;14.90;99.90
73586;DHT22;61865;50.232;18.614;2023-03-31T13:45:31;15.00;99.90
73586;DHT22;61865;50.232;18.614;2023-03-31T13:48:17;14.80;99.90
73586;DHT22;61865;50.232;18.614;2023-03-31T13:56:44;14.50;99.90
73586;DHT22;61865;50.232;18.614;2023-03-31T13:59:47;14.50;99.90
73586;DHT22;61865;50.232;18.614;2023-03-31T14:05:32;14.40;99.90
73586;DHT22;61865;50.232;18.614;2023-03-31T14:08:00;14.20;99.90
73586;DHT22;61865;50.232;18.614;2023-03-31T14:10:29;14.10;99.90
73586;DHT22;61865;50.232;18.614;2023-03-31T14:12:51;14.00;99.90
73586;DHT22;61865;50.232;18.614;2023-03-31T14:15:20;13.80;99.90
73586;DHT22;61865;50.232;18.614;2023-03-31T14:17:45;13.60;99.90
73586;DHT22;61865;50.232;18.614;2023-03-31T14:20:25;13.50;99.90
73586;DHT22;61865;50.232;18.614;2023-03-31T14:23:00;13.40;99.90
73586;DHT22;61865;50.232;18.614;2023-03-31T14:25:36;13.40;99.90
73586;DHT22;61865;50.232;18.614;2023-03-31T14:28:09;13.40;99.90
73586;DHT22;61865;50.232;18.614;2023-03-31T14:30:43;13.30;99.90
73586;DHT22;61865;50.232;18.614;2023-03-31T14:33:18;13.30;99.90
73586;DHT22;61865;50.232;18.614;2023-03-31T14:35:50;13.20;99.90
73586;DHT22;61865;50.232;18.614;2023-03-31T14:38:18;13.20;99.90
73586;DHT22;61865;50.232;18.614;2023-03-31T14:40:45;13.10;99.90
73586;DHT22;61865;50.232;18.614;2023-03-31T14:43:10;13.10;99.90
73586;DHT22;61865;50.232;18.614;2023-03-31T14:45:42;13.10;99.90
73586;DHT22;61865;50.232;18.614;2023-03-31T14:48:11;13.10;99.90
73586;DHT22;61865;50.232;18.614;2023-03-31T14:50:34;13.00;99.90
73586;DHT22;61865;50.232;18.614;2023-03-31T14:52:56;13.00;99.90
73586;DHT22;61865;50.232;18.614;2023-03-31T14:55:21;13.00;99.90
73586;DHT22;61865;50.232;18.614;2023-03-31T14:57:45;13.00;99.90
73586;DHT22;61865;50.232;18.614;2023-03-31T15:00:10;13.00;99.90
73586;DHT22;61865;50.232;18.614;2023-03-31T15:02:36;13.10;99.90
73586;DHT22;61865;50.232;18.614;2023-03-31T15:05:02;13.10;99.90
73586;DHT22;61865;50.232;18.614;2023-03-31T15:07:27;13.20;99.90
73586;DHT22;61865;50.232;18.614;2023-03-31T15:09:50;13.30;99.90
73586;DHT22;61865;50.232;18.614;2023-03-31T15:12:14;13.40;99.90
73586;DHT22;61865;50.232;18.614;2023-03-31T15:14:41;13.60;99.90
73586;DHT22;61865;50.232;18.614;2023-03-31T15:17:04;13.90;99.90
73586;DHT22;61865;50.232;18.614;2023-03-31T15:19:29;14.20;99.90
73586;DHT22;61865;50.232;18.614;2023-03-31T15:21:55;14.40;99.90
73586;DHT22;61865;50.232;18.614;2023-03-31T15:24:17;14.60;99.90
73586;DHT22;61865;50.232;18.614;2023-03-31T15:26:43;14.80;99.90
73586;DHT22;61865;50.232;18.614;2023-03-31T15:29:10;14.80;99.90
73586;DHT22;61865;50.232;18.614;2023-03-31T15:31:34;14.60;99.90
73586;DHT22;61865;50.232;18.614;2023-03-31T15:33:56;14.50;99.90
73586;DHT22;61865;50.232;18.614;2023-03-31T15:36:20;14.30;99.90
73586;DHT22;61865;50.232;18.614;2023-03-31T15:38:43;14.10;99.90
73586;DHT22;61865;50.232;18.614;2023-03-31T15:41:10;13.90;99.90
73586;DHT22;61865;50.232;18.614;2023-03-31T15:43:44;13.80;99.90
73586;DHT22;61865;50.232;18.614;2023-03-31T15:46:10;13.70;99.90
73586;DHT22;61865;50.232;18.614;2023-03-31T15:48:33;13.60;99.90